Terminal Aerodrome Forecast
Issued by NWS

Home | Current Version | Previous Version | Text Only | Print | Product List | Glossary On
Versions: 1 2 3 4 5 6 7 8 9 10 11 12 13 14 15 16 17 18 19 20 21
000
FTUS43 KPAH 291120
TAFOWB
TAF
KOWB 291120Z 2912/3012 08008KT P6SM SCT060 BKN200
     FM292300 10008KT P6SM BKN050
     FM301000 13007KT P6SM BKN035 PROB30 3010/3012 -SHRA=

USA.gov is the U.S. government's official web portal to all federal, state and local government web resources and services.